Domov               UVHVVR             MKGP            O straneh              
ZDRAVSTVENO VARSTVO RASTLIN
  MREŽA AGROMET. POSTAJ
 ► PROGNOSTIČNA OBVESTILA
AGROMETEOROLOŠKI PODATKI -
ARSO
OBVLADOVANJE TVEGANJ ZARADI
NEUGODNIH VREMENSKIH RAZMER
  ► NARAVNE NESREČE
  ► SUŠA/MOČA
  ► NAMAKANJE
  ► ŽLED (gozdarstvo)
KARTOGRAFSKI PRIKAZI
SPLETNE POVEZAVE
PROJEKTI IN PUBLIKACIJE

AGROMETEOROLOŠKA MREŽA: VREMENSKE POSTAJE IN FENOLOŠKA OPAZOVANJA

Pregled podatkov za lokacijo Pradisiol, meteorološka postaja 861649

Pregled senzorjev na lokaciji

ID Ime Zadnja
vrednost
Datum
zadnje
spremembe
Tip
senzorja
4076 Omočenost lista (U) 0 U 20.6.2018 16:30 A730WET
4077 Padavine (mm) 0 mm 20.6.2018 16:30 Rain-O-Matic
4075 Relativna vlaga 2 m (% RH) 41,72 % RH 20.6.2018 16:30 50YA
4074 Temperatura 2 m (°C) 31,73 °C 20.6.2018 16:30 50YA

Pregled podatkov zadnjih 24 ur

Zap.
št.
Datum in čas Pradisiol
Omočenost
lista
Padavine Relativna
vlaga
2
m
Temperatura
2
m
1 20.6.2018 17:00
2 20.6.2018 16:30
3 20.6.2018 16:00
4 20.6.2018 15:30 0 0 41,7 31,7
5 20.6.2018 15:00 0 0 42,2 31,4
6 20.6.2018 14:30 0 0 41,8 31,9
7 20.6.2018 14:00 0 0 42 32,1
8 20.6.2018 13:30 0 0 43,3 31,6
9 20.6.2018 13:00 0 0 43,9 31
10 20.6.2018 12:30 0 0 40,8 32,2
11 20.6.2018 12:00 0 0 42,4 31,5
12 20.6.2018 11:30 0 0 42,3 31,9
13 20.6.2018 11:00 0 0 42,5 31,2
14 20.6.2018 10:30 0 0 43 30,4
15 20.6.2018 10:00 0 0 43,6 30
16 20.6.2018 09:30 0 0 45,1 29,4
17 20.6.2018 09:00 0 0 45,9 29
18 20.6.2018 08:30 0 0 46,3 28,2
19 20.6.2018 08:00 0 0 48,2 27,2
20 20.6.2018 07:30 0 0 50,8 26,3
21 20.6.2018 07:00 0 0 64,7 23,6
22 20.6.2018 06:30 0 0 76,4 20,7
23 20.6.2018 06:00 10 0 87,3 17,8
24 20.6.2018 05:30 10 0 93,9 15,6
25 20.6.2018 05:00 10 0 95,3 14,3
26 20.6.2018 04:30 10 0 94,4 14
27 20.6.2018 04:00 10 0 93,4 14,6
28 20.6.2018 03:30 10 0 93,8 15
29 20.6.2018 03:00 10 0 94,1 14,9
30 20.6.2018 02:30 10 0 93,9 15
31 20.6.2018 02:00 10 0 93,7 15
32 20.6.2018 01:30 10 0 93,1 15,2
33 20.6.2018 01:00 10 0 92,3 15,5
34 20.6.2018 00:30 10 0 91,3 15,6
35 20.6.2018 00:00 10 0 89,3 16
36 19.6.2018 23:30 10 0 90,7 16,1
37 19.6.2018 23:00 10 0 89,5 16,3
38 19.6.2018 22:30 10 0 88,2 16,8
39 19.6.2018 22:00 10 0 85,7 17,6
40 19.6.2018 21:30 4 0 82,5 18,4
41 19.6.2018 21:00 1 0 76 19,9
42 19.6.2018 20:30 0 0 70,3 21,7
43 19.6.2018 20:00 0 0 59,7 24,2
44 19.6.2018 19:30 0 0 47,9 27,4
45 19.6.2018 19:00 0 0 42,6 28,6
46 19.6.2018 18:30 0 0 41,7 29,4
47 19.6.2018 18:00 0 0 36,8 31
48 19.6.2018 17:30 0 0 37,6 31,7
© 2011 Ministrstvo za kmetijstvo, gozdarstvo in prehrano. Vse pravice pridržane.